sensor_id;sensor_type;location;lat;lon;timestamp;P1;durP1;ratioP1;P2;durP2;ratioP2
4428;SDS011;2227;47.810;8.810;2023-04-06T03:47:45;686.25;;;444.80;;
4428;SDS011;2227;47.810;8.810;2023-04-06T03:50:12;681.67;;;445.40;;
4428;SDS011;2227;47.810;8.810;2023-04-06T03:52:39;678.58;;;438.95;;
4428;SDS011;2227;47.810;8.810;2023-04-06T03:55:05;693.08;;;447.45;;
4428;SDS011;2227;47.810;8.810;2023-04-06T03:57:33;683.30;;;446.33;;
4428;SDS011;2227;47.810;8.810;2023-04-06T04:00:00;691.17;;;456.30;;
4428;SDS011;2227;47.810;8.810;2023-04-06T04:02:28;690.20;;;448.35;;
4428;SDS011;2227;47.810;8.810;2023-04-06T04:04:55;691.15;;;448.02;;
4428;SDS011;2227;47.810;8.810;2023-04-06T04:07:22;683.30;;;443.80;;
4428;SDS011;2227;47.810;8.810;2023-04-06T04:09:48;683.78;;;450.40;;
4428;SDS011;2227;47.810;8.810;2023-04-06T04:12:15;691.00;;;456.90;;
4428;SDS011;2227;47.810;8.810;2023-04-06T04:14:42;690.67;;;446.55;;
4428;SDS011;2227;47.810;8.810;2023-04-06T04:17:10;692.10;;;457.77;;
4428;SDS011;2227;47.810;8.810;2023-04-06T04:19:36;687.67;;;445.88;;
4428;SDS011;2227;47.810;8.810;2023-04-06T04:22:03;687.95;;;447.55;;
4428;SDS011;2227;47.810;8.810;2023-04-06T04:24:31;691.05;;;445.00;;
4428;SDS011;2227;47.810;8.810;2023-04-06T04:26:57;689.95;;;445.17;;
4428;SDS011;2227;47.810;8.810;2023-04-06T04:29:26;677.55;;;427.25;;
4428;SDS011;2227;47.810;8.810;2023-04-06T04:31:53;681.83;;;433.15;;
4428;SDS011;2227;47.810;8.810;2023-04-06T04:34:20;681.03;;;425.10;;
4428;SDS011;2227;47.810;8.810;2023-04-06T04:36:49;679.15;;;417.60;;
4428;SDS011;2227;47.810;8.810;2023-04-06T04:39:17;677.45;;;410.98;;
4428;SDS011;2227;47.810;8.810;2023-04-06T04:41:43;673.35;;;415.58;;
4428;SDS011;2227;47.810;8.810;2023-04-06T04:44:10;679.38;;;435.95;;
4428;SDS011;2227;47.810;8.810;2023-04-06T04:46:37;677.35;;;423.33;;
4428;SDS011;2227;47.810;8.810;2023-04-06T04:49:04;678.75;;;422.50;;
4428;SDS011;2227;47.810;8.810;2023-04-06T04:51:30;675.50;;;423.67;;
4428;SDS011;2227;47.810;8.810;2023-04-06T04:53:58;676.67;;;427.33;;
4428;SDS011;2227;47.810;8.810;2023-04-06T04:56:25;676.95;;;425.20;;
4428;SDS011;2227;47.810;8.810;2023-04-06T04:58:53;677.08;;;428.27;;
4428;SDS011;2227;47.810;8.810;2023-04-06T05:01:20;678.97;;;428.50;;
4428;SDS011;2227;47.810;8.810;2023-04-06T05:03:46;678.67;;;431.63;;
4428;SDS011;2227;47.810;8.810;2023-04-06T05:06:13;675.85;;;440.90;;
4428;SDS011;2227;47.810;8.810;2023-04-06T05:08:40;676.25;;;436.83;;
4428;SDS011;2227;47.810;8.810;2023-04-06T05:11:08;678.42;;;442.73;;
4428;SDS011;2227;47.810;8.810;2023-04-06T05:13:36;679.15;;;441.77;;
4428;SDS011;2227;47.810;8.810;2023-04-06T05:16:02;680.95;;;439.15;;
4428;SDS011;2227;47.810;8.810;2023-04-06T05:18:29;684.92;;;441.85;;
4428;SDS011;2227;47.810;8.810;2023-04-06T05:20:56;687.85;;;445.50;;
4428;SDS011;2227;47.810;8.810;2023-04-06T05:23:23;680.78;;;437.20;;
4428;SDS011;2227;47.810;8.810;2023-04-06T05:25:50;679.65;;;439.98;;
4428;SDS011;2227;47.810;8.810;2023-04-06T05:28:17;679.97;;;439.70;;
4428;SDS011;2227;47.810;8.810;2023-04-06T05:30:44;681.75;;;443.30;;
4428;SDS011;2227;47.810;8.810;2023-04-06T05:33:12;683.70;;;449.70;;
4428;SDS011;2227;47.810;8.810;2023-04-06T05:35:39;683.33;;;448.80;;
4428;SDS011;2227;47.810;8.810;2023-04-06T05:38:07;685.37;;;454.53;;
4428;SDS011;2227;47.810;8.810;2023-04-06T05:40:36;686.50;;;457.63;;
4428;SDS011;2227;47.810;8.810;2023-04-06T05:43:04;684.85;;;458.77;;
4428;SDS011;2227;47.810;8.810;2023-04-06T05:45:31;682.80;;;457.20;;
4428;SDS011;2227;47.810;8.810;2023-04-06T05:47:57;685.60;;;453.50;;
4428;SDS011;2227;47.810;8.810;2023-04-06T05:50:24;688.03;;;460.83;;
4428;SDS011;2227;47.810;8.810;2023-04-06T05:52:51;685.63;;;461.45;;
4428;SDS011;2227;47.810;8.810;2023-04-06T05:55:18;689.80;;;471.40;;
4428;SDS011;2227;47.810;8.810;2023-04-06T05:57:45;688.00;;;459.25;;
4428;SDS011;2227;47.810;8.810;2023-04-06T06:00:11;689.72;;;462.52;;
4428;SDS011;2227;47.810;8.810;2023-04-06T06:02:39;690.22;;;466.80;;
4428;SDS011;2227;47.810;8.810;2023-04-06T06:05:10;695.40;;;474.40;;
4428;SDS011;2227;47.810;8.810;2023-04-06T06:07:37;692.90;;;469.13;;
4428;SDS011;2227;47.810;8.810;2023-04-06T06:10:04;691.13;;;470.65;;
4428;SDS011;2227;47.810;8.810;2023-04-06T06:12:31;692.78;;;472.35;;
4428;SDS011;2227;47.810;8.810;2023-04-06T06:14:57;694.87;;;475.63;;
4428;SDS011;2227;47.810;8.810;2023-04-06T06:17:24;694.15;;;486.77;;
4428;SDS011;2227;47.810;8.810;2023-04-06T06:19:51;692.85;;;484.65;;
4428;SDS011;2227;47.810;8.810;2023-04-06T06:22:18;695.83;;;492.42;;
4428;SDS011;2227;47.810;8.810;2023-04-06T06:24:44;699.17;;;507.08;;
4428;SDS011;2227;47.810;8.810;2023-04-06T06:27:11;696.15;;;504.90;;
4428;SDS011;2227;47.810;8.810;2023-04-06T06:29:38;695.53;;;519.78;;
4428;SDS011;2227;47.810;8.810;2023-04-06T06:32:05;699.13;;;515.50;;
4428;SDS011;2227;47.810;8.810;2023-04-06T06:34:32;698.90;;;524.88;;
4428;SDS011;2227;47.810;8.810;2023-04-06T06:36:58;698.70;;;531.33;;
4428;SDS011;2227;47.810;8.810;2023-04-06T06:39:25;701.45;;;534.22;;
4428;SDS011;2227;47.810;8.810;2023-04-06T06:41:52;703.35;;;547.92;;
4428;SDS011;2227;47.810;8.810;2023-04-06T06:44:21;704.65;;;547.63;;
4428;SDS011;2227;47.810;8.810;2023-04-06T06:46:47;703.35;;;552.42;;
4428;SDS011;2227;47.810;8.810;2023-04-06T06:49:14;701.88;;;552.83;;
4428;SDS011;2227;47.810;8.810;2023-04-06T06:51:41;703.60;;;569.28;;
4428;SDS011;2227;47.810;8.810;2023-04-06T06:54:07;704.50;;;573.70;;
4428;SDS011;2227;47.810;8.810;2023-04-06T06:56:35;706.90;;;586.42;;
4428;SDS011;2227;47.810;8.810;2023-04-06T06:59:05;710.85;;;572.95;;
4428;SDS011;2227;47.810;8.810;2023-04-06T07:01:32;705.90;;;580.35;;
4428;SDS011;2227;47.810;8.810;2023-04-06T07:04:02;709.28;;;601.40;;
4428;SDS011;2227;47.810;8.810;2023-04-06T07:06:29;708.30;;;593.22;;
4428;SDS011;2227;47.810;8.810;2023-04-06T07:08:55;704.70;;;597.10;;
4428;SDS011;2227;47.810;8.810;2023-04-06T07:11:22;710.97;;;605.17;;
4428;SDS011;2227;47.810;8.810;2023-04-06T07:13:49;710.03;;;604.83;;
4428;SDS011;2227;47.810;8.810;2023-04-06T07:16:16;717.95;;;627.15;;
4428;SDS011;2227;47.810;8.810;2023-04-06T07:18:43;717.70;;;625.30;;
4428;SDS011;2227;47.810;8.810;2023-04-06T07:21:09;715.05;;;628.42;;
4428;SDS011;2227;47.810;8.810;2023-04-06T07:23:36;724.90;;;645.47;;
4428;SDS011;2227;47.810;8.810;2023-04-06T07:26:03;726.83;;;647.90;;
4428;SDS011;2227;47.810;8.810;2023-04-06T07:28:30;737.97;;;659.38;;
4428;SDS011;2227;47.810;8.810;2023-04-06T07:30:57;734.30;;;656.13;;
4428;SDS011;2227;47.810;8.810;2023-04-06T07:33:24;742.67;;;664.33;;
4428;SDS011;2227;47.810;8.810;2023-04-06T07:35:51;744.50;;;666.97;;
4428;SDS011;2227;47.810;8.810;2023-04-06T07:38:18;754.03;;;676.13;;
4428;SDS011;2227;47.810;8.810;2023-04-06T07:40:45;759.47;;;681.85;;
4428;SDS011;2227;47.810;8.810;2023-04-06T07:43:12;769.85;;;692.15;;
4428;SDS011;2227;47.810;8.810;2023-04-06T07:45:39;772.60;;;695.40;;
4428;SDS011;2227;47.810;8.810;2023-04-06T07:48:06;763.28;;;686.00;;
4428;SDS011;2227;47.810;8.810;2023-04-06T07:50:32;775.57;;;697.87;;
4428;SDS011;2227;47.810;8.810;2023-04-06T07:53:00;790.97;;;713.33;;
4428;SDS011;2227;47.810;8.810;2023-04-06T07:55:27;789.25;;;711.67;;
4428;SDS011;2227;47.810;8.810;2023-04-06T07:57:53;801.42;;;723.83;;
4428;SDS011;2227;47.810;8.810;2023-04-06T08:00:20;806.65;;;729.45;;
4428;SDS011;2227;47.810;8.810;2023-04-06T08:02:47;812.30;;;734.47;;
4428;SDS011;2227;47.810;8.810;2023-04-06T08:05:14;819.90;;;742.08;;
4428;SDS011;2227;47.810;8.810;2023-04-06T08:07:41;838.60;;;760.55;;
4428;SDS011;2227;47.810;8.810;2023-04-06T08:10:08;835.80;;;757.80;;
4428;SDS011;2227;47.810;8.810;2023-04-06T08:12:35;842.03;;;763.80;;
4428;SDS011;2227;47.810;8.810;2023-04-06T08:15:02;857.53;;;779.53;;
4428;SDS011;2227;47.810;8.810;2023-04-06T08:17:31;881.25;;;803.20;;
4428;SDS011;2227;47.810;8.810;2023-04-06T08:19:58;898.10;;;819.13;;
4428;SDS011;2227;47.810;8.810;2023-04-06T08:22:25;905.20;;;825.60;;
4428;SDS011;2227;47.810;8.810;2023-04-06T08:24:51;941.92;;;861.25;;
4428;SDS011;2227;47.810;8.810;2023-04-06T08:27:18;952.28;;;868.15;;
4428;SDS011;2227;47.810;8.810;2023-04-06T08:29:45;964.05;;;878.35;;
4428;SDS011;2227;47.810;8.810;2023-04-06T08:32:12;971.28;;;885.78;;
4428;SDS011;2227;47.810;8.810;2023-04-06T08:34:39;977.53;;;892.58;;
4428;SDS011;2227;47.810;8.810;2023-04-06T08:37:06;984.97;;;899.30;;
4428;SDS011;2227;47.810;8.810;2023-04-06T08:39:32;979.80;;;896.60;;
4428;SDS011;2227;47.810;8.810;2023-04-06T08:42:00;986.97;;;903.67;;
4428;SDS011;2227;47.810;8.810;2023-04-06T08:44:29;1009.92;;;927.00;;
4428;SDS011;2227;47.810;8.810;2023-04-06T08:46:59;1032.82;;;949.53;;
4428;SDS011;2227;47.810;8.810;2023-04-06T08:49:26;1063.70;;;979.17;;
4428;SDS011;2227;47.810;8.810;2023-04-06T08:51:54;1080.30;;;995.30;;
4428;SDS011;2227;47.810;8.810;2023-04-06T08:54:21;1086.80;;;999.90;;
4428;SDS011;2227;47.810;8.810;2023-04-06T08:56:48;1099.83;;;999.90;;
4428;SDS011;2227;47.810;8.810;2023-04-06T08:59:15;1081.30;;;996.55;;
4428;SDS011;2227;47.810;8.810;2023-04-06T09:01:42;1080.55;;;995.92;;
4428;SDS011;2227;47.810;8.810;2023-04-06T09:04:12;1097.97;;;999.90;;
4428;SDS011;2227;47.810;8.810;2023-04-06T09:06:39;1106.33;;;999.90;;
4428;SDS011;2227;47.810;8.810;2023-04-06T09:09:07;1104.13;;;999.90;;
4428;SDS011;2227;47.810;8.810;2023-04-06T09:14:14;1121.53;;;999.90;;
4428;SDS011;2227;47.810;8.810;2023-04-06T09:16:42;1105.43;;;999.90;;
4428;SDS011;2227;47.810;8.810;2023-04-06T09:19:09;1097.25;;;999.90;;
4428;SDS011;2227;47.810;8.810;2023-04-06T09:21:38;1104.20;;;999.90;;
4428;SDS011;2227;47.810;8.810;2023-04-06T09:24:07;1111.63;;;999.90;;
4428;SDS011;2227;47.810;8.810;2023-04-06T09:26:44;1112.30;;;999.90;;
4428;SDS011;2227;47.810;8.810;2023-04-06T09:29:25;1132.53;;;999.90;;
4428;SDS011;2227;47.810;8.810;2023-04-06T09:32:01;1128.07;;;999.90;;
4428;SDS011;2227;47.810;8.810;2023-04-06T09:34:32;1125.60;;;999.90;;
4428;SDS011;2227;47.810;8.810;2023-04-06T09:36:59;1150.97;;;999.90;;
4428;SDS011;2227;47.810;8.810;2023-04-06T09:39:27;1160.05;;;999.90;;
4428;SDS011;2227;47.810;8.810;2023-04-06T09:41:54;1181.50;;;999.90;;
4428;SDS011;2227;47.810;8.810;2023-04-06T09:44:21;1200.65;;;999.90;;
4428;SDS011;2227;47.810;8.810;2023-04-06T09:46:50;1200.88;;;999.90;;
4428;SDS011;2227;47.810;8.810;2023-04-06T09:49:28;1203.20;;;999.90;;
4428;SDS011;2227;47.810;8.810;2023-04-06T09:52:03;1203.63;;;999.90;;
4428;SDS011;2227;47.810;8.810;2023-04-06T09:54:33;1183.97;;;999.90;;
4428;SDS011;2227;47.810;8.810;2023-04-06T10:00:04;1212.68;;;999.90;;
4428;SDS011;2227;47.810;8.810;2023-04-06T10:02:43;1210.70;;;999.90;;
4428;SDS011;2227;47.810;8.810;2023-04-06T10:08:06;1161.50;;;999.90;;
4428;SDS011;2227;47.810;8.810;2023-04-06T10:10:36;1134.50;;;999.90;;
4428;SDS011;2227;47.810;8.810;2023-04-06T10:13:03;1131.53;;;999.90;;
4428;SDS011;2227;47.810;8.810;2023-04-06T10:15:31;1129.43;;;999.90;;
4428;SDS011;2227;47.810;8.810;2023-04-06T10:17:58;1148.75;;;999.90;;
4428;SDS011;2227;47.810;8.810;2023-04-06T10:23:19;1126.10;;;999.90;;
4428;SDS011;2227;47.810;8.810;2023-04-06T10:25:58;1123.97;;;999.90;;
4428;SDS011;2227;47.810;8.810;2023-04-06T10:28:33;1140.15;;;999.90;;
4428;SDS011;2227;47.810;8.810;2023-04-06T10:31:04;1160.30;;;999.90;;
4428;SDS011;2227;47.810;8.810;2023-04-06T10:33:31;1157.20;;;999.90;;
4428;SDS011;2227;47.810;8.810;2023-04-06T10:36:08;1152.00;;;999.90;;
4428;SDS011;2227;47.810;8.810;2023-04-06T10:38:40;1138.78;;;999.90;;
4428;SDS011;2227;47.810;8.810;2023-04-06T10:41:08;1143.20;;;999.90;;
4428;SDS011;2227;47.810;8.810;2023-04-06T10:43:37;1136.80;;;999.90;;
4428;SDS011;2227;47.810;8.810;2023-04-06T10:46:06;1143.95;;;999.90;;
4428;SDS011;2227;47.810;8.810;2023-04-06T10:48:37;1138.32;;;999.90;;
4428;SDS011;2227;47.810;8.810;2023-04-06T10:51:08;1144.65;;;999.90;;
4428;SDS011;2227;47.810;8.810;2023-04-06T10:53:49;1149.57;;;999.90;;
4428;SDS011;2227;47.810;8.810;2023-04-06T10:56:16;1147.88;;;999.90;;
4428;SDS011;2227;47.810;8.810;2023-04-06T10:58:47;1145.00;;;999.90;;
4428;SDS011;2227;47.810;8.810;2023-04-06T11:01:15;1150.30;;;999.90;;
4428;SDS011;2227;47.810;8.810;2023-04-06T11:03:44;1180.22;;;999.90;;
4428;SDS011;2227;47.810;8.810;2023-04-06T11:06:21;1197.80;;;999.90;;
4428;SDS011;2227;47.810;8.810;2023-04-06T11:08:50;1202.63;;;999.90;;
4428;SDS011;2227;47.810;8.810;2023-04-06T11:11:18;1209.47;;;999.90;;
4428;SDS011;2227;47.810;8.810;2023-04-06T11:16:15;1179.28;;;999.90;;
4428;SDS011;2227;47.810;8.810;2023-04-06T11:18:47;1169.87;;;999.90;;
4428;SDS011;2227;47.810;8.810;2023-04-06T11:21:30;1170.68;;;999.90;;
4428;SDS011;2227;47.810;8.810;2023-04-06T11:26:37;1160.00;;;999.90;;
4428;SDS011;2227;47.810;8.810;2023-04-06T11:29:12;1159.03;;;999.90;;
4428;SDS011;2227;47.810;8.810;2023-04-06T11:31:40;1164.05;;;999.90;;
4428;SDS011;2227;47.810;8.810;2023-04-06T11:34:18;1161.03;;;999.90;;
4428;SDS011;2227;47.810;8.810;2023-04-06T11:36:48;1153.32;;;999.90;;
4428;SDS011;2227;47.810;8.810;2023-04-06T11:39:23;1141.43;;;999.90;;
4428;SDS011;2227;47.810;8.810;2023-04-06T11:41:51;1127.10;;;999.90;;
4428;SDS011;2227;47.810;8.810;2023-04-06T11:44:31;1126.45;;;999.90;;
4428;SDS011;2227;47.810;8.810;2023-04-06T11:47:02;1121.10;;;999.90;;
4428;SDS011;2227;47.810;8.810;2023-04-06T11:49:31;1119.55;;;999.90;;
4428;SDS011;2227;47.810;8.810;2023-04-06T11:51:59;1114.22;;;999.90;;
4428;SDS011;2227;47.810;8.810;2023-04-06T11:54:33;1105.60;;;999.90;;
4428;SDS011;2227;47.810;8.810;2023-04-06T11:57:04;1111.63;;;999.90;;
4428;SDS011;2227;47.810;8.810;2023-04-06T11:59:31;1110.40;;;999.90;;
4428;SDS011;2227;47.810;8.810;2023-04-06T12:01:59;1115.03;;;999.90;;
4428;SDS011;2227;47.810;8.810;2023-04-06T12:04:27;1100.32;;;999.90;;
4428;SDS011;2227;47.810;8.810;2023-04-06T12:06:54;1102.40;;;999.90;;
4428;SDS011;2227;47.810;8.810;2023-04-06T12:09:21;1113.07;;;999.90;;
4428;SDS011;2227;47.810;8.810;2023-04-06T12:11:48;1115.70;;;999.90;;
4428;SDS011;2227;47.810;8.810;2023-04-06T12:14:15;1114.88;;;999.90;;
4428;SDS011;2227;47.810;8.810;2023-04-06T12:16:42;1114.97;;;999.90;;
4428;SDS011;2227;47.810;8.810;2023-04-06T12:19:09;1101.25;;;999.90;;
4428;SDS011;2227;47.810;8.810;2023-04-06T12:21:36;1099.85;;;999.90;;
4428;SDS011;2227;47.810;8.810;2023-04-06T12:24:03;1114.78;;;999.90;;
4428;SDS011;2227;47.810;8.810;2023-04-06T12:26:31;1117.47;;;999.90;;
4428;SDS011;2227;47.810;8.810;2023-04-06T12:28:58;1109.63;;;999.90;;
4428;SDS011;2227;47.810;8.810;2023-04-06T12:31:36;1106.47;;;999.90;;
4428;SDS011;2227;47.810;8.810;2023-04-06T12:34:07;1109.43;;;999.90;;
4428;SDS011;2227;47.810;8.810;2023-04-06T12:36:33;1108.35;;;999.90;;
4428;SDS011;2227;47.810;8.810;2023-04-06T12:39:00;1113.22;;;999.90;;
4428;SDS011;2227;47.810;8.810;2023-04-06T12:41:28;1107.32;;;999.90;;
4428;SDS011;2227;47.810;8.810;2023-04-06T12:43:55;1112.95;;;999.90;;
4428;SDS011;2227;47.810;8.810;2023-04-06T12:46:23;1106.22;;;999.90;;
4428;SDS011;2227;47.810;8.810;2023-04-06T12:48:50;1109.13;;;999.90;;
4428;SDS011;2227;47.810;8.810;2023-04-06T12:51:20;1109.33;;;999.90;;
4428;SDS011;2227;47.810;8.810;2023-04-06T12:53:46;1112.55;;;999.90;;
4428;SDS011;2227;47.810;8.810;2023-04-06T12:56:14;1103.57;;;999.90;;
4428;SDS011;2227;47.810;8.810;2023-04-06T12:58:46;1093.90;;;999.90;;
4428;SDS011;2227;47.810;8.810;2023-04-06T13:01:13;1096.45;;;999.90;;
4428;SDS011;2227;47.810;8.810;2023-04-06T13:03:40;1093.33;;;999.90;;
4428;SDS011;2227;47.810;8.810;2023-04-06T13:06:07;1093.15;;;999.90;;
4428;SDS011;2227;47.810;8.810;2023-04-06T13:08:35;1085.80;;;999.90;;
4428;SDS011;2227;47.810;8.810;2023-04-06T13:11:06;1083.68;;;999.90;;
4428;SDS011;2227;47.810;8.810;2023-04-06T13:13:35;1075.28;;;996.60;;
4428;SDS011;2227;47.810;8.810;2023-04-06T13:16:03;1063.22;;;985.88;;
4428;SDS011;2227;47.810;8.810;2023-04-06T13:18:32;1059.33;;;982.43;;
4428;SDS011;2227;47.810;8.810;2023-04-06T13:21:00;1055.60;;;978.33;;
4428;SDS011;2227;47.810;8.810;2023-04-06T13:23:27;1061.80;;;984.90;;
4428;SDS011;2227;47.810;8.810;2023-04-06T13:26:00;1062.93;;;986.07;;
4428;SDS011;2227;47.810;8.810;2023-04-06T13:28:29;1058.57;;;982.15;;
4428;SDS011;2227;47.810;8.810;2023-04-06T13:30:57;1062.40;;;986.17;;
4428;SDS011;2227;47.810;8.810;2023-04-06T13:33:26;1060.82;;;984.20;;
4428;SDS011;2227;47.810;8.810;2023-04-06T13:35:53;1063.05;;;985.17;;
4428;SDS011;2227;47.810;8.810;2023-04-06T13:38:20;1055.63;;;979.25;;
4428;SDS011;2227;47.810;8.810;2023-04-06T13:40:47;1060.82;;;983.40;;
4428;SDS011;2227;47.810;8.810;2023-04-06T13:43:14;1057.47;;;977.92;;
4428;SDS011;2227;47.810;8.810;2023-04-06T13:45:41;1037.75;;;959.45;;
4428;SDS011;2227;47.810;8.810;2023-04-06T13:48:20;1039.28;;;960.78;;
4428;SDS011;2227;47.810;8.810;2023-04-06T13:50:47;1022.27;;;943.63;;
4428;SDS011;2227;47.810;8.810;2023-04-06T13:53:14;1023.10;;;945.55;;
4428;SDS011;2227;47.810;8.810;2023-04-06T13:55:40;1039.90;;;963.35;;
4428;SDS011;2227;47.810;8.810;2023-04-06T13:58:07;1038.10;;;961.80;;
4428;SDS011;2227;47.810;8.810;2023-04-06T14:00:34;1046.53;;;968.63;;
4428;SDS011;2227;47.810;8.810;2023-04-06T14:03:01;1045.05;;;966.40;;
4428;SDS011;2227;47.810;8.810;2023-04-06T14:05:32;1020.15;;;942.95;;
4428;SDS011;2227;47.810;8.810;2023-04-06T14:07:59;1033.40;;;955.80;;
4428;SDS011;2227;47.810;8.810;2023-04-06T14:10:26;1032.68;;;955.22;;
4428;SDS011;2227;47.810;8.810;2023-04-06T14:12:54;1039.53;;;962.15;;
4428;SDS011;2227;47.810;8.810;2023-04-06T14:15:21;1035.30;;;957.35;;
4428;SDS011;2227;47.810;8.810;2023-04-06T14:17:48;1027.25;;;950.13;;
4428;SDS011;2227;47.810;8.810;2023-04-06T14:20:15;1027.25;;;950.78;;
4428;SDS011;2227;47.810;8.810;2023-04-06T14:22:42;1045.18;;;967.70;;
4428;SDS011;2227;47.810;8.810;2023-04-06T14:25:09;1041.65;;;965.22;;
4428;SDS011;2227;47.810;8.810;2023-04-06T14:27:37;1050.80;;;974.20;;
4428;SDS011;2227;47.810;8.810;2023-04-06T14:30:04;1047.05;;;971.00;;
4428;SDS011;2227;47.810;8.810;2023-04-06T14:32:31;1049.55;;;972.55;;
4428;SDS011;2227;47.810;8.810;2023-04-06T14:34:58;1053.38;;;976.28;;
4428;SDS011;2227;47.810;8.810;2023-04-06T14:37:25;1047.95;;;972.13;;
4428;SDS011;2227;47.810;8.810;2023-04-06T14:39:52;1052.45;;;976.95;;
4428;SDS011;2227;47.810;8.810;2023-04-06T14:42:19;1055.68;;;979.28;;
4428;SDS011;2227;47.810;8.810;2023-04-06T14:44:45;1043.53;;;966.25;;
4428;SDS011;2227;47.810;8.810;2023-04-06T14:47:12;1030.70;;;954.30;;
4428;SDS011;2227;47.810;8.810;2023-04-06T14:49:41;1031.10;;;954.95;;
4428;SDS011;2227;47.810;8.810;2023-04-06T14:52:08;1026.43;;;949.10;;
4428;SDS011;2227;47.810;8.810;2023-04-06T14:54:35;1019.35;;;942.55;;
4428;SDS011;2227;47.810;8.810;2023-04-06T14:57:01;1018.92;;;942.80;;
4428;SDS011;2227;47.810;8.810;2023-04-06T14:59:28;1015.25;;;938.75;;
4428;SDS011;2227;47.810;8.810;2023-04-06T15:01:55;1010.00;;;934.72;;
4428;SDS011;2227;47.810;8.810;2023-04-06T15:04:22;1011.15;;;934.70;;
4428;SDS011;2227;47.810;8.810;2023-04-06T15:06:49;1030.75;;;953.55;;
4428;SDS011;2227;47.810;8.810;2023-04-06T15:09:15;1020.63;;;944.60;;
4428;SDS011;2227;47.810;8.810;2023-04-06T15:11:42;1019.85;;;943.08;;
4428;SDS011;2227;47.810;8.810;2023-04-06T15:14:09;1007.30;;;930.00;;
4428;SDS011;2227;47.810;8.810;2023-04-06T15:16:35;1013.15;;;936.75;;
4428;SDS011;2227;47.810;8.810;2023-04-06T15:19:02;1007.10;;;931.00;;
4428;SDS011;2227;47.810;8.810;2023-04-06T15:21:29;1006.05;;;927.60;;
4428;SDS011;2227;47.810;8.810;2023-04-06T15:23:57;994.30;;;916.67;;
4428;SDS011;2227;47.810;8.810;2023-04-06T15:26:23;993.67;;;916.50;;
4428;SDS011;2227;47.810;8.810;2023-04-06T15:28:52;1010.87;;;932.40;;
4428;SDS011;2227;47.810;8.810;2023-04-06T15:31:19;998.20;;;920.10;;
4428;SDS011;2227;47.810;8.810;2023-04-06T15:34:03;1000.05;;;922.30;;
4428;SDS011;2227;47.810;8.810;2023-04-06T15:36:30;996.00;;;918.55;;
4428;SDS011;2227;47.810;8.810;2023-04-06T15:38:57;989.67;;;912.63;;
4428;SDS011;2227;47.810;8.810;2023-04-06T15:41:24;997.88;;;920.85;;
4428;SDS011;2227;47.810;8.810;2023-04-06T15:43:52;991.07;;;914.27;;
4428;SDS011;2227;47.810;8.810;2023-04-06T15:46:20;993.33;;;916.43;;
4428;SDS011;2227;47.810;8.810;2023-04-06T15:48:47;991.35;;;914.17;;
4428;SDS011;2227;47.810;8.810;2023-04-06T15:51:14;993.17;;;917.13;;
4428;SDS011;2227;47.810;8.810;2023-04-06T15:53:42;988.77;;;911.77;;
4428;SDS011;2227;47.810;8.810;2023-04-06T15:56:09;987.78;;;911.95;;
4428;SDS011;2227;47.810;8.810;2023-04-06T15:58:36;985.85;;;909.25;;
4428;SDS011;2227;47.810;8.810;2023-04-06T16:01:12;982.97;;;907.35;;
4428;SDS011;2227;47.810;8.810;2023-04-06T16:03:40;992.50;;;915.80;;
4428;SDS011;2227;47.810;8.810;2023-04-06T16:06:07;986.33;;;909.50;;
4428;SDS011;2227;47.810;8.810;2023-04-06T16:08:34;977.33;;;900.22;;
4428;SDS011;2227;47.810;8.810;2023-04-06T16:11:02;979.70;;;903.33;;
4428;SDS011;2227;47.810;8.810;2023-04-06T16:13:29;977.47;;;900.58;;
4428;SDS011;2227;47.810;8.810;2023-04-06T16:15:55;973.42;;;896.10;;
4428;SDS011;2227;47.810;8.810;2023-04-06T16:18:22;968.72;;;890.40;;
4428;SDS011;2227;47.810;8.810;2023-04-06T16:20:49;950.08;;;871.00;;
4428;SDS011;2227;47.810;8.810;2023-04-06T16:23:16;942.13;;;862.55;;
4428;SDS011;2227;47.810;8.810;2023-04-06T16:25:43;938.10;;;859.63;;
4428;SDS011;2227;47.810;8.810;2023-04-06T16:28:10;926.23;;;848.13;;
4428;SDS011;2227;47.810;8.810;2023-04-06T16:30:37;950.03;;;871.60;;
4428;SDS011;2227;47.810;8.810;2023-04-06T16:33:06;942.85;;;864.75;;
4428;SDS011;2227;47.810;8.810;2023-04-06T16:35:33;940.67;;;861.97;;
4428;SDS011;2227;47.810;8.810;2023-04-06T16:37:59;940.90;;;861.72;;
4428;SDS011;2227;47.810;8.810;2023-04-06T16:40:26;941.63;;;863.38;;
4428;SDS011;2227;47.810;8.810;2023-04-06T16:42:53;936.90;;;858.65;;
4428;SDS011;2227;47.810;8.810;2023-04-06T16:45:20;941.10;;;862.95;;
4428;SDS011;2227;47.810;8.810;2023-04-06T16:47:47;942.03;;;863.42;;
4428;SDS011;2227;47.810;8.810;2023-04-06T16:50:15;935.10;;;856.65;;
4428;SDS011;2227;47.810;8.810;2023-04-06T16:52:43;942.07;;;864.17;;
4428;SDS011;2227;47.810;8.810;2023-04-06T16:55:09;938.40;;;860.53;;
4428;SDS011;2227;47.810;8.810;2023-04-06T16:57:36;947.65;;;869.88;;
4428;SDS011;2227;47.810;8.810;2023-04-06T17:00:04;943.03;;;864.78;;
4428;SDS011;2227;47.810;8.810;2023-04-06T17:02:32;942.83;;;864.97;;
4428;SDS011;2227;47.810;8.810;2023-04-06T17:05:01;937.60;;;859.20;;
4428;SDS011;2227;47.810;8.810;2023-04-06T17:07:29;943.73;;;865.43;;
4428;SDS011;2227;47.810;8.810;2023-04-06T17:10:01;926.10;;;846.95;;
4428;SDS011;2227;47.810;8.810;2023-04-06T17:12:28;924.47;;;846.38;;
4428;SDS011;2227;47.810;8.810;2023-04-06T17:14:54;928.67;;;850.00;;
4428;SDS011;2227;47.810;8.810;2023-04-06T17:17:21;922.78;;;843.90;;
4428;SDS011;2227;47.810;8.810;2023-04-06T17:19:48;914.20;;;836.50;;
4428;SDS011;2227;47.810;8.810;2023-04-06T17:22:15;921.92;;;843.03;;
4428;SDS011;2227;47.810;8.810;2023-04-06T17:24:46;916.75;;;838.65;;
4428;SDS011;2227;47.810;8.810;2023-04-06T17:27:14;913.28;;;834.17;;
4428;SDS011;2227;47.810;8.810;2023-04-06T17:29:41;922.88;;;843.75;;
4428;SDS011;2227;47.810;8.810;2023-04-06T17:32:08;903.25;;;825.20;;
4428;SDS011;2227;47.810;8.810;2023-04-06T17:34:35;908.40;;;830.15;;
4428;SDS011;2227;47.810;8.810;2023-04-06T17:37:02;910.25;;;831.67;;
4428;SDS011;2227;47.810;8.810;2023-04-06T17:39:28;905.83;;;826.92;;
4428;SDS011;2227;47.810;8.810;2023-04-06T17:41:55;908.70;;;829.78;;
4428;SDS011;2227;47.810;8.810;2023-04-06T17:44:22;897.05;;;818.92;;
4428;SDS011;2227;47.810;8.810;2023-04-06T17:46:49;908.95;;;831.10;;
4428;SDS011;2227;47.810;8.810;2023-04-06T17:49:15;911.45;;;833.35;;
4428;SDS011;2227;47.810;8.810;2023-04-06T17:51:42;907.53;;;830.22;;
4428;SDS011;2227;47.810;8.810;2023-04-06T17:54:10;898.40;;;820.90;;
4428;SDS011;2227;47.810;8.810;2023-04-06T17:56:36;906.58;;;828.38;;
4428;SDS011;2227;47.810;8.810;2023-04-06T17:59:04;909.30;;;830.80;;
4428;SDS011;2227;47.810;8.810;2023-04-06T18:01:33;909.35;;;831.38;;
4428;SDS011;2227;47.810;8.810;2023-04-06T18:04:00;904.20;;;826.28;;
4428;SDS011;2227;47.810;8.810;2023-04-06T18:06:27;908.33;;;830.93;;
4428;SDS011;2227;47.810;8.810;2023-04-06T18:08:53;908.53;;;830.55;;
4428;SDS011;2227;47.810;8.810;2023-04-06T18:11:20;902.92;;;825.63;;
4428;SDS011;2227;47.810;8.810;2023-04-06T18:13:48;906.83;;;829.70;;
4428;SDS011;2227;47.810;8.810;2023-04-06T18:16:15;906.90;;;829.80;;
4428;SDS011;2227;47.810;8.810;2023-04-06T18:18:46;909.75;;;831.15;;
4428;SDS011;2227;47.810;8.810;2023-04-06T18:21:13;905.85;;;826.70;;
4428;SDS011;2227;47.810;8.810;2023-04-06T18:23:40;911.03;;;831.90;;